DLH2WC EDDB-EDDM
Flight info
| Callsign | DLH2WC |
|---|---|
| Flight time | 0h 46m |
| Altitude | 28000 |
| Route | LUROS3Q/06R LUROS Y211 BEBKU Z36 MAREM DCT VESUB T106 TUSTO T108 LANDU LANDU2B |
| Aircraft | A320/M-SDE3FGHIRWY/LB1 |
Departure
| Time | 2026-05-06 18:02 |
|---|---|
| Airport | Berlin Brandenburg Airport (EDDB) |
Arrival
| Time | 2026-05-06 18:49 |
|---|---|
| Airport | Munich Airport (EDDM) |
| Time | Latitude | Longitude | Altitude | Speed | Heading |
|---|---|---|---|---|---|
| 2026-05-06 17:40 | 52.36433 | 13.50568 | 152 ft | 0 kts | 69° |
| 2026-05-06 17:50 | 52.36430 | 13.50554 | 152 ft | 2 kts | 69° |
| 2026-05-06 17:50 | 52.36424 | 13.50532 | 152 ft | 2 kts | 69° |
| 2026-05-06 17:50 | 52.36419 | 13.50509 | 152 ft | 2 kts | 69° |
| 2026-05-06 17:50 | 52.36414 | 13.50486 | 152 ft | 2 kts | 69° |
| 2026-05-06 17:51 | 52.36409 | 13.50463 | 151 ft | 2 kts | 69° |
| 2026-05-06 17:51 | 52.36403 | 13.50440 | 151 ft | 2 kts | 69° |
| 2026-05-06 17:51 | 52.36398 | 13.50417 | 151 ft | 2 kts | 71° |
| 2026-05-06 17:51 | 52.36396 | 13.50393 | 151 ft | 2 kts | 96° |
| 2026-05-06 17:52 | 52.36400 | 13.50369 | 151 ft | 2 kts | 116° |
| 2026-05-06 17:52 | 52.36408 | 13.50349 | 151 ft | 2 kts | 136° |
| 2026-05-06 17:52 | 52.36420 | 13.50335 | 151 ft | 1 kts | 155° |
| 2026-05-06 17:52 | 52.36426 | 13.50331 | 151 ft | 1 kts | 160° |
| 2026-05-06 17:53 | 52.36428 | 13.50330 | 151 ft | 0 kts | 160° |
| 2026-05-06 17:54 | 52.36417 | 13.50337 | 151 ft | 4 kts | 159° |
| 2026-05-06 17:55 | 52.36375 | 13.50363 | 151 ft | 8 kts | 158° |
| 2026-05-06 17:55 | 52.36303 | 13.50410 | 151 ft | 13 kts | 158° |
| 2026-05-06 17:55 | 52.36205 | 13.50472 | 151 ft | 16 kts | 159° |
| 2026-05-06 17:55 | 52.36090 | 13.50545 | 151 ft | 18 kts | 158° |
| 2026-05-06 17:56 | 52.35965 | 13.50625 | 151 ft | 19 kts | 158° |
| 2026-05-06 17:56 | 52.35849 | 13.50636 | 151 ft | 14 kts | 185° |
| 2026-05-06 17:56 | 52.35762 | 13.50573 | 151 ft | 15 kts | 245° |
| 2026-05-06 17:56 | 52.35722 | 13.50405 | 150 ft | 16 kts | 250° |
| 2026-05-06 17:57 | 52.35679 | 13.50223 | 150 ft | 17 kts | 248° |
| 2026-05-06 17:57 | 52.35631 | 13.50023 | 149 ft | 19 kts | 248° |
| 2026-05-06 17:57 | 52.35579 | 13.49802 | 149 ft | 22 kts | 249° |
| 2026-05-06 17:57 | 52.35521 | 13.49560 | 149 ft | 23 kts | 249° |
| 2026-05-06 17:58 | 52.35460 | 13.49300 | 149 ft | 24 kts | 248° |
| 2026-05-06 17:58 | 52.35396 | 13.49031 | 150 ft | 25 kts | 248° |
| 2026-05-06 17:58 | 52.35331 | 13.48757 | 150 ft | 26 kts | 248° |
| 2026-05-06 17:58 | 52.35274 | 13.48520 | 150 ft | 18 kts | 238° |
| 2026-05-06 17:59 | 52.35168 | 13.48513 | 150 ft | 15 kts | 161° |
| 2026-05-06 17:59 | 52.35104 | 13.48617 | 151 ft | 12 kts | 101° |
| 2026-05-06 17:59 | 52.35089 | 13.48765 | 151 ft | 14 kts | 97° |
| 2026-05-06 17:59 | 52.35068 | 13.48947 | 150 ft | 16 kts | 105° |
| 2026-05-06 18:00 | 52.35065 | 13.49029 | 150 ft | 0 kts | 72° |
| 2026-05-06 18:01 | 52.35067 | 13.49040 | 150 ft | 6 kts | 72° |
| 2026-05-06 18:02 | 52.35174 | 13.49499 | 150 ft | 80 kts | 68° |
| 2026-05-06 18:02 | 52.35454 | 13.50674 | 151 ft | 141 kts | 68° |
| 2026-05-06 18:02 | 52.35850 | 13.52341 | 495 ft | 163 kts | 68° |
| 2026-05-06 18:02 | 52.36089 | 13.54107 | 1154 ft | 168 kts | 96° |
| 2026-05-06 18:03 | 52.35464 | 13.55696 | 1869 ft | 178 kts | 136° |
| 2026-05-06 18:03 | 52.34382 | 13.56843 | 2441 ft | 192 kts | 145° |
| 2026-05-06 18:03 | 52.33219 | 13.58011 | 3023 ft | 203 kts | 145° |
| 2026-05-06 18:03 | 52.32029 | 13.59288 | 3622 ft | 213 kts | 143° |
| 2026-05-06 18:04 | 52.30973 | 13.60979 | 4333 ft | 215 kts | 115° |
| 2026-05-06 18:04 | 52.30753 | 13.63322 | 4910 ft | 221 kts | 78° |
| 2026-05-06 18:04 | 52.31161 | 13.65872 | 5343 ft | 243 kts | 82° |
| 2026-05-06 18:04 | 52.30892 | 13.68657 | 5803 ft | 263 kts | 121° |
| 2026-05-06 18:05 | 52.29588 | 13.70726 | 6301 ft | 275 kts | 157° |
| 2026-05-06 18:05 | 52.27714 | 13.71280 | 6991 ft | 276 kts | 188° |
| 2026-05-06 18:05 | 52.25822 | 13.70914 | 7906 ft | 277 kts | 190° |
| 2026-05-06 18:05 | 52.23922 | 13.70648 | 8804 ft | 279 kts | 185° |
| 2026-05-06 18:06 | 52.21995 | 13.70578 | 9669 ft | 280 kts | 185° |
| 2026-05-06 18:06 | 52.20047 | 13.70507 | 10418 ft | 286 kts | 185° |
| 2026-05-06 18:06 | 52.18018 | 13.70410 | 10839 ft | 303 kts | 185° |
| 2026-05-06 18:06 | 52.15847 | 13.70296 | 11201 ft | 320 kts | 185° |
| 2026-05-06 18:07 | 52.13564 | 13.70175 | 11542 ft | 337 kts | 185° |
| 2026-05-06 18:07 | 52.11194 | 13.70051 | 12117 ft | 345 kts | 185° |
| 2026-05-06 18:07 | 52.08812 | 13.69928 | 12812 ft | 348 kts | 184° |
| 2026-05-06 18:07 | 52.06369 | 13.69802 | 13503 ft | 350 kts | 184° |
| 2026-05-06 18:08 | 52.03952 | 13.69679 | 14153 ft | 353 kts | 184° |
| 2026-05-06 18:08 | 52.01508 | 13.69552 | 14801 ft | 356 kts | 185° |
| 2026-05-06 18:08 | 51.99029 | 13.69423 | 15432 ft | 359 kts | 185° |
| 2026-05-06 18:08 | 51.96542 | 13.69292 | 16032 ft | 361 kts | 185° |
| 2026-05-06 18:09 | 51.94032 | 13.69160 | 16619 ft | 364 kts | 185° |
| 2026-05-06 18:09 | 51.91479 | 13.69024 | 17183 ft | 367 kts | 184° |
| 2026-05-06 18:09 | 51.88923 | 13.68889 | 17733 ft | 370 kts | 185° |
| 2026-05-06 18:09 | 51.86370 | 13.68756 | 18286 ft | 372 kts | 185° |
| 2026-05-06 18:10 | 51.83771 | 13.68619 | 18842 ft | 374 kts | 185° |
| 2026-05-06 18:10 | 51.81170 | 13.68482 | 19368 ft | 376 kts | 185° |
| 2026-05-06 18:10 | 51.78576 | 13.68346 | 19903 ft | 378 kts | 185° |
| 2026-05-06 18:10 | 51.75934 | 13.68208 | 20441 ft | 380 kts | 185° |
| 2026-05-06 18:11 | 51.73289 | 13.68069 | 20975 ft | 381 kts | 185° |
| 2026-05-06 18:11 | 51.71557 | 13.67979 | 21312 ft | 382 kts | 185° |
| 2026-05-06 18:11 | 51.67995 | 13.67792 | 21974 ft | 384 kts | 185° |
| 2026-05-06 18:11 | 51.65342 | 13.67653 | 22437 ft | 386 kts | 185° |
| 2026-05-06 18:12 | 51.62653 | 13.67512 | 22895 ft | 388 kts | 185° |
| 2026-05-06 18:12 | 51.59967 | 13.67371 | 23336 ft | 390 kts | 185° |
| 2026-05-06 18:12 | 51.57238 | 13.67229 | 23707 ft | 392 kts | 185° |
| 2026-05-06 18:12 | 51.54537 | 13.67090 | 23759 ft | 392 kts | 185° |
| 2026-05-06 18:13 | 51.51809 | 13.66948 | 23763 ft | 392 kts | 185° |
| 2026-05-06 18:13 | 51.49095 | 13.66808 | 23765 ft | 392 kts | 185° |
| 2026-05-06 18:13 | 51.46361 | 13.66666 | 23769 ft | 395 kts | 184° |
| 2026-05-06 18:13 | 51.43593 | 13.66522 | 24121 ft | 398 kts | 185° |
| 2026-05-06 18:14 | 51.40841 | 13.66381 | 24633 ft | 398 kts | 185° |
| 2026-05-06 18:14 | 51.38096 | 13.66242 | 25061 ft | 399 kts | 185° |
| 2026-05-06 18:14 | 51.35331 | 13.66099 | 25467 ft | 400 kts | 185° |
| 2026-05-06 18:14 | 51.32538 | 13.65916 | 25841 ft | 401 kts | 188° |
| 2026-05-06 18:15 | 51.29807 | 13.65155 | 26192 ft | 401 kts | 195° |
| 2026-05-06 18:15 | 51.27112 | 13.64119 | 26554 ft | 402 kts | 196° |
| 2026-05-06 18:15 | 51.24377 | 13.63042 | 26903 ft | 404 kts | 196° |
| 2026-05-06 18:15 | 51.21637 | 13.61983 | 27252 ft | 406 kts | 196° |
| 2026-05-06 18:16 | 51.18908 | 13.60955 | 27589 ft | 407 kts | 195° |
| 2026-05-06 18:16 | 51.16152 | 13.59935 | 27758 ft | 408 kts | 195° |
| 2026-05-06 18:16 | 51.13382 | 13.58922 | 27760 ft | 408 kts | 195° |
| 2026-05-06 18:16 | 51.10632 | 13.57925 | 27759 ft | 408 kts | 195° |
| 2026-05-06 18:17 | 51.07892 | 13.56939 | 27763 ft | 408 kts | 195° |
| 2026-05-06 18:17 | 51.05121 | 13.55944 | 27762 ft | 408 kts | 195° |
| 2026-05-06 18:17 | 51.02372 | 13.54961 | 27759 ft | 408 kts | 195° |
| 2026-05-06 18:17 | 50.99604 | 13.53975 | 27762 ft | 408 kts | 195° |
| 2026-05-06 18:18 | 50.96850 | 13.52994 | 27758 ft | 408 kts | 195° |
| 2026-05-06 18:18 | 50.94058 | 13.52002 | 27762 ft | 408 kts | 195° |
| 2026-05-06 18:18 | 50.91316 | 13.51030 | 27760 ft | 409 kts | 195° |
| 2026-05-06 18:18 | 50.88533 | 13.50044 | 27768 ft | 409 kts | 195° |
| 2026-05-06 18:19 | 50.85780 | 13.49071 | 27758 ft | 408 kts | 195° |
| 2026-05-06 18:19 | 50.83021 | 13.48097 | 27757 ft | 409 kts | 195° |
| 2026-05-06 18:19 | 50.80256 | 13.47121 | 27760 ft | 408 kts | 195° |
| 2026-05-06 18:19 | 50.77489 | 13.46145 | 27760 ft | 408 kts | 195° |
| 2026-05-06 18:20 | 50.74708 | 13.45167 | 27763 ft | 408 kts | 195° |
| 2026-05-06 18:20 | 50.71941 | 13.44194 | 27766 ft | 408 kts | 195° |
| 2026-05-06 18:20 | 50.69180 | 13.43223 | 27773 ft | 408 kts | 195° |
| 2026-05-06 18:20 | 50.66420 | 13.42255 | 27766 ft | 407 kts | 195° |
| 2026-05-06 18:21 | 50.63660 | 13.41287 | 27766 ft | 407 kts | 195° |
| 2026-05-06 18:21 | 50.60909 | 13.40324 | 27766 ft | 408 kts | 195° |
| 2026-05-06 18:21 | 50.58154 | 13.39360 | 27766 ft | 409 kts | 195° |
| 2026-05-06 18:21 | 50.55374 | 13.38390 | 27762 ft | 408 kts | 195° |
| 2026-05-06 18:22 | 50.52593 | 13.37421 | 27758 ft | 408 kts | 195° |
| 2026-05-06 18:22 | 50.49865 | 13.36470 | 27750 ft | 408 kts | 195° |
| 2026-05-06 18:22 | 50.47078 | 13.35501 | 27750 ft | 408 kts | 195° |
| 2026-05-06 18:22 | 50.44333 | 13.34549 | 27743 ft | 409 kts | 194° |
| 2026-05-06 18:23 | 50.41563 | 13.33588 | 27744 ft | 409 kts | 194° |
| 2026-05-06 18:23 | 50.38777 | 13.32622 | 27747 ft | 408 kts | 194° |
| 2026-05-06 18:23 | 50.36024 | 13.31669 | 27747 ft | 408 kts | 194° |
| 2026-05-06 18:23 | 50.33258 | 13.30712 | 27745 ft | 407 kts | 194° |
| 2026-05-06 18:24 | 50.30497 | 13.29757 | 27751 ft | 408 kts | 194° |
| 2026-05-06 18:24 | 50.27715 | 13.28796 | 27749 ft | 408 kts | 194° |
| 2026-05-06 18:24 | 50.24955 | 13.27844 | 27741 ft | 407 kts | 194° |
| 2026-05-06 18:24 | 50.22209 | 13.26900 | 27744 ft | 407 kts | 194° |
| 2026-05-06 18:25 | 50.19449 | 13.25950 | 27753 ft | 408 kts | 194° |
| 2026-05-06 18:25 | 50.16696 | 13.25007 | 27748 ft | 407 kts | 194° |
| 2026-05-06 18:25 | 50.13926 | 13.24058 | 27746 ft | 407 kts | 194° |
| 2026-05-06 18:25 | 50.11166 | 13.23111 | 27751 ft | 408 kts | 194° |
| 2026-05-06 18:26 | 50.08427 | 13.22174 | 27751 ft | 408 kts | 194° |
| 2026-05-06 18:26 | 50.05647 | 13.21224 | 27752 ft | 408 kts | 194° |
| 2026-05-06 18:26 | 50.02900 | 13.20285 | 27754 ft | 408 kts | 194° |
| 2026-05-06 18:26 | 50.00112 | 13.19336 | 27759 ft | 407 kts | 194° |
| 2026-05-06 18:27 | 49.97358 | 13.18400 | 27747 ft | 407 kts | 194° |
| 2026-05-06 18:27 | 49.94604 | 13.17461 | 27744 ft | 408 kts | 194° |
| 2026-05-06 18:27 | 49.91835 | 13.16522 | 27750 ft | 408 kts | 194° |
| 2026-05-06 18:27 | 49.89085 | 13.15587 | 27748 ft | 408 kts | 194° |
| 2026-05-06 18:28 | 49.86277 | 13.14637 | 27728 ft | 408 kts | 194° |
| 2026-05-06 18:28 | 49.83527 | 13.13706 | 27736 ft | 409 kts | 194° |
| 2026-05-06 18:28 | 49.80752 | 13.12768 | 27736 ft | 408 kts | 194° |
| 2026-05-06 18:28 | 49.77970 | 13.11829 | 27741 ft | 409 kts | 194° |
| 2026-05-06 18:29 | 49.75217 | 13.10903 | 27735 ft | 409 kts | 194° |
| 2026-05-06 18:29 | 49.72438 | 13.09967 | 27729 ft | 409 kts | 194° |
| 2026-05-06 18:29 | 49.69660 | 13.09032 | 27465 ft | 408 kts | 194° |
| 2026-05-06 18:29 | 49.66909 | 13.08107 | 27194 ft | 406 kts | 194° |
| 2026-05-06 18:30 | 49.64152 | 13.07182 | 26914 ft | 405 kts | 194° |
| 2026-05-06 18:30 | 49.61492 | 13.05979 | 26621 ft | 402 kts | 204° |
| 2026-05-06 18:30 | 49.58989 | 13.04090 | 26361 ft | 401 kts | 209° |
| 2026-05-06 18:30 | 49.56524 | 13.02045 | 26098 ft | 400 kts | 209° |
| 2026-05-06 18:31 | 49.54086 | 13.00027 | 25831 ft | 398 kts | 209° |
| 2026-05-06 18:31 | 49.51662 | 12.98055 | 25565 ft | 397 kts | 208° |
| 2026-05-06 18:31 | 49.49218 | 12.96094 | 25288 ft | 396 kts | 208° |
| 2026-05-06 18:31 | 49.46788 | 12.94165 | 25013 ft | 396 kts | 208° |
| 2026-05-06 18:32 | 49.44339 | 12.92234 | 24743 ft | 395 kts | 207° |
| 2026-05-06 18:32 | 49.41896 | 12.90317 | 24482 ft | 394 kts | 207° |
| 2026-05-06 18:32 | 49.39468 | 12.88424 | 24197 ft | 392 kts | 207° |
| 2026-05-06 18:32 | 49.37047 | 12.86539 | 23932 ft | 392 kts | 207° |
| 2026-05-06 18:33 | 49.34645 | 12.84672 | 23662 ft | 390 kts | 207° |
| 2026-05-06 18:33 | 49.32214 | 12.82783 | 23397 ft | 390 kts | 207° |
| 2026-05-06 18:33 | 49.29810 | 12.80916 | 23134 ft | 388 kts | 207° |
| 2026-05-06 18:33 | 49.27412 | 12.79063 | 22873 ft | 386 kts | 207° |
| 2026-05-06 18:34 | 49.25035 | 12.77226 | 22614 ft | 385 kts | 207° |
| 2026-05-06 18:34 | 49.22677 | 12.75403 | 22359 ft | 383 kts | 207° |
| 2026-05-06 18:34 | 49.20300 | 12.73567 | 22087 ft | 382 kts | 207° |
| 2026-05-06 18:34 | 49.17939 | 12.71748 | 21783 ft | 381 kts | 207° |
| 2026-05-06 18:35 | 49.15554 | 12.69915 | 21395 ft | 380 kts | 207° |
| 2026-05-06 18:35 | 49.13215 | 12.68117 | 20936 ft | 377 kts | 207° |
| 2026-05-06 18:35 | 49.10885 | 12.66327 | 20460 ft | 374 kts | 207° |
| 2026-05-06 18:35 | 49.08583 | 12.64560 | 19918 ft | 371 kts | 207° |
| 2026-05-06 18:36 | 49.06294 | 12.62805 | 19406 ft | 367 kts | 207° |
| 2026-05-06 18:36 | 49.04043 | 12.61083 | 18888 ft | 364 kts | 207° |
| 2026-05-06 18:36 | 49.01786 | 12.59356 | 18360 ft | 361 kts | 207° |
| 2026-05-06 18:36 | 48.99548 | 12.57647 | 17837 ft | 362 kts | 207° |
| 2026-05-06 18:37 | 48.97303 | 12.55934 | 17329 ft | 360 kts | 207° |
| 2026-05-06 18:37 | 48.95813 | 12.54798 | 16970 ft | 362 kts | 207° |
| 2026-05-06 18:37 | 48.92768 | 12.52792 | 16235 ft | 361 kts | 203° |
| 2026-05-06 18:37 | 48.90438 | 12.51365 | 15683 ft | 358 kts | 203° |
| 2026-05-06 18:38 | 48.88151 | 12.49968 | 15144 ft | 356 kts | 202° |
| 2026-05-06 18:38 | 48.85861 | 12.48560 | 14596 ft | 354 kts | 203° |
| 2026-05-06 18:38 | 48.83607 | 12.47176 | 14050 ft | 351 kts | 202° |
| 2026-05-06 18:38 | 48.81374 | 12.45792 | 13509 ft | 349 kts | 203° |
| 2026-05-06 18:39 | 48.79118 | 12.44391 | 12958 ft | 346 kts | 203° |
| 2026-05-06 18:39 | 48.76932 | 12.43031 | 12420 ft | 343 kts | 202° |
| 2026-05-06 18:39 | 48.74705 | 12.41692 | 11866 ft | 340 kts | 201° |
| 2026-05-06 18:40 | 48.70341 | 12.39135 | 10770 ft | 335 kts | 202° |
| 2026-05-06 18:40 | 48.68190 | 12.37886 | 10222 ft | 333 kts | 202° |
| 2026-05-06 18:40 | 48.66060 | 12.36647 | 9685 ft | 331 kts | 202° |
| 2026-05-06 18:40 | 48.63937 | 12.35420 | 9136 ft | 322 kts | 202° |
| 2026-05-06 18:41 | 48.61867 | 12.34253 | 8600 ft | 321 kts | 201° |
| 2026-05-06 18:41 | 48.59758 | 12.33080 | 8043 ft | 319 kts | 204° |
| 2026-05-06 18:41 | 48.57871 | 12.31408 | 7671 ft | 314 kts | 218° |
| 2026-05-06 18:41 | 48.56170 | 12.29378 | 7438 ft | 312 kts | 221° |
| 2026-05-06 18:42 | 48.54506 | 12.27357 | 7086 ft | 302 kts | 221° |
| 2026-05-06 18:42 | 48.52906 | 12.25462 | 6817 ft | 280 kts | 221° |
| 2026-05-06 18:42 | 48.51393 | 12.23702 | 6556 ft | 275 kts | 221° |
| 2026-05-06 18:42 | 48.49875 | 12.21958 | 6227 ft | 273 kts | 220° |
| 2026-05-06 18:43 | 48.48395 | 12.20276 | 5882 ft | 261 kts | 220° |
| 2026-05-06 18:43 | 48.46956 | 12.18658 | 5598 ft | 255 kts | 221° |
| 2026-05-06 18:43 | 48.45558 | 12.17088 | 5349 ft | 250 kts | 221° |
| 2026-05-06 18:43 | 48.44188 | 12.15550 | 5250 ft | 239 kts | 221° |
| 2026-05-06 18:44 | 48.42891 | 12.14099 | 5231 ft | 230 kts | 222° |
| 2026-05-06 18:44 | 48.41610 | 12.12656 | 5199 ft | 232 kts | 221° |
| 2026-05-06 18:44 | 48.40319 | 12.11203 | 5181 ft | 234 kts | 222° |
| 2026-05-06 18:44 | 48.39136 | 12.09590 | 5133 ft | 222 kts | 241° |
| 2026-05-06 18:45 | 48.38584 | 12.07511 | 4805 ft | 213 kts | 261° |
| 2026-05-06 18:45 | 48.38406 | 12.05327 | 4446 ft | 204 kts | 268° |
| 2026-05-06 18:45 | 48.38312 | 12.03273 | 4177 ft | 192 kts | 267° |
| 2026-05-06 18:45 | 48.38240 | 12.01973 | 4001 ft | 186 kts | 266° |
| 2026-05-06 18:46 | 48.38065 | 11.99489 | 3737 ft | 175 kts | 266° |
| 2026-05-06 18:46 | 48.37922 | 11.97689 | 3545 ft | 169 kts | 265° |
| 2026-05-06 18:46 | 48.37781 | 11.95967 | 3294 ft | 166 kts | 265° |
| 2026-05-06 18:46 | 48.37643 | 11.94252 | 3058 ft | 164 kts | 265° |
| 2026-05-06 18:47 | 48.37507 | 11.92566 | 2852 ft | 156 kts | 265° |
| 2026-05-06 18:47 | 48.37384 | 11.91016 | 2622 ft | 143 kts | 265° |
| 2026-05-06 18:47 | 48.37273 | 11.89603 | 2421 ft | 131 kts | 263° |
| 2026-05-06 18:47 | 48.37172 | 11.88292 | 2241 ft | 121 kts | 263° |
| 2026-05-06 18:48 | 48.37075 | 11.87046 | 2099 ft | 120 kts | 262° |
| 2026-05-06 18:48 | 48.36967 | 11.85817 | 1956 ft | 119 kts | 265° |
| 2026-05-06 18:48 | 48.36873 | 11.84573 | 1807 ft | 119 kts | 266° |
| 2026-05-06 18:48 | 48.36787 | 11.83339 | 1648 ft | 118 kts | 261° |
| 2026-05-06 18:49 | 48.36684 | 11.82113 | 1499 ft | 119 kts | 264° |
| 2026-05-06 18:49 | 48.36602 | 11.80982 | 1457 ft | 88 kts | 264° |
| 2026-05-06 18:49 | 48.36549 | 11.80310 | 1460 ft | 49 kts | 264° |
| 2026-05-06 18:49 | 48.36500 | 11.79859 | 1462 ft | 36 kts | 249° |
| 2026-05-06 18:50 | 48.36377 | 11.79552 | 1464 ft | 32 kts | 234° |
| 2026-05-06 18:50 | 48.36260 | 11.79327 | 1467 ft | 22 kts | 218° |
| 2026-05-06 18:50 | 48.36115 | 11.79312 | 1468 ft | 21 kts | 173° |
| 2026-05-06 18:50 | 48.35995 | 11.79332 | 1469 ft | 8 kts | 173° |
| 2026-05-06 18:51 | 48.35962 | 11.79338 | 1470 ft | 0 kts | 173° |
| 2026-05-06 18:51 | 48.35953 | 11.79340 | 1470 ft | 4 kts | 172° |
| 2026-05-06 18:51 | 48.35907 | 11.79391 | 1470 ft | 12 kts | 110° |
| 2026-05-06 18:52 | 48.35865 | 11.79517 | 1470 ft | 15 kts | 163° |
| 2026-05-06 18:52 | 48.35762 | 11.79536 | 1471 ft | 14 kts | 173° |
| 2026-05-06 18:52 | 48.35664 | 11.79554 | 1471 ft | 14 kts | 174° |
| 2026-05-06 18:52 | 48.35566 | 11.79571 | 1472 ft | 14 kts | 173° |
| 2026-05-06 18:53 | 48.35482 | 11.79586 | 1473 ft | 7 kts | 170° |
| 2026-05-06 18:53 | 48.35464 | 11.79652 | 1472 ft | 9 kts | 84° |
| 2026-05-06 18:53 | 48.35470 | 11.79736 | 1472 ft | 4 kts | 83° |
| 2026-05-06 18:53 | 48.35471 | 11.79752 | 1472 ft | 0 kts | 84° |